»·PEaware :: AAL418 KSBA-KPSP

AAL418 :: KSBA-KPSP

FLIGHT INFORMATION

Flight Status: Arrived
Operator:
American Airlines
More flights by this operator :: More flights under this callsign
Pilot: Ryan L. (9775)
Aircraft: BOEING 737-800
(B738)
More flights by this aircraft type
Origin: KSBA Santa Barbara Mun
United States
Destination: KPSP Palm Springs Intl
United States
More flights between these airports :: More routes between these airports
Route: +KWANG PMD V137 PSP
File this flight plan on PilotEdge
Remarks:
Altitude:
(Current/Filed)
19,000ft
Speed:
(Current/Filed)
400kts
Departed: 09-Sep-18 08:08 AM
Arrived: 09-Sep-18 08:52 AM
Distance/Time
Traveled:
170nm/0:44
Distance/Time
To Go:
Arrived

Flight Plot

Page will automatically refresh every two minutes.

Flight plan parsing failed; only flown route is shown


Map Options




Map Legend


Flown Route
Filed Route
Departure Airport
Arrival Airport
Navaid (VOR, NDB)
Fix

Horizontal Profiles

Position Reports

Time Latitude Longitude Heading Altitude Ground
Speed
09-Sep-18 07:41 34.426170 -119.837088 179 21ft 0kts
09-Sep-18 07:42 34.426170 -119.837088 179 21ft 0kts
09-Sep-18 07:43 34.426170 -119.837088 179 21ft 0kts
09-Sep-18 07:44 34.426170 -119.837088 179 21ft 0kts
09-Sep-18 07:45 34.426170 -119.837088 179 21ft 0kts
09-Sep-18 07:46 34.426170 -119.837088 179 21ft 0kts
09-Sep-18 07:47 34.426170 -119.837088 179 21ft 0kts
09-Sep-18 07:48 34.426170 -119.837088 179 21ft 0kts
09-Sep-18 07:49 34.426170 -119.837088 179 21ft 0kts
09-Sep-18 07:50 34.426170 -119.837088 179 21ft 0kts
09-Sep-18 07:51 34.426170 -119.837088 179 21ft 0kts
09-Sep-18 07:52 34.426170 -119.837088 179 21ft 0kts
09-Sep-18 07:53 34.426170 -119.837088 179 21ft 0kts
09-Sep-18 07:54 34.426170 -119.837088 179 21ft 0kts
09-Sep-18 07:55 34.426170 -119.837088 179 21ft 0kts
09-Sep-18 07:56 34.426170 -119.837088 179 21ft 0kts
09-Sep-18 07:57 34.426219 -119.837089 179 21ft 1kts
09-Sep-18 07:58 34.426391 -119.837585 24 21ft 1kts
09-Sep-18 07:59 34.426169 -119.837573 358 21ft 0kts
09-Sep-18 08:00 34.426169 -119.837573 358 21ft 0kts
09-Sep-18 08:01 34.426169 -119.837573 358 21ft 0kts
09-Sep-18 08:02 34.426169 -119.837573 358 21ft 0kts
09-Sep-18 08:03 34.426169 -119.837573 358 21ft 0kts
09-Sep-18 08:04 34.426169 -119.837573 358 21ft 0kts
09-Sep-18 08:05 34.426382 -119.837574 3 21ft 4kts
09-Sep-18 08:06 34.426819 -119.835287 86 21ft 4kts
09-Sep-18 08:07 34.427006 -119.834992 11 21ft 0kts
09-Sep-18 08:08 34.427706 -119.835018 343 21ft 5kts
09-Sep-18 08:09 34.427859 -119.835957 267 21ft 14kts
09-Sep-18 08:10 34.426140 -119.876935 266 1364ft 165kts
09-Sep-18 08:11 34.423698 -119.938281 268 2921ft 207kts
09-Sep-18 08:12 34.395987 -119.986783 169 4558ft 219kts
09-Sep-18 08:13 34.331754 -119.951046 152 6638ft 295kts
09-Sep-18 08:14 34.261403 -119.906734 152 8755ft 294kts
09-Sep-18 08:15 34.226371 -119.826751 74 11430ft 323kts
09-Sep-18 08:16 34.251085 -119.720655 72 14540ft 340kts
09-Sep-18 08:17 34.277540 -119.608957 72 17563ft 357kts
09-Sep-18 08:18 34.305452 -119.490646 72 18949ft 394kts
09-Sep-18 08:19 34.336314 -119.359129 72 18942ft 415kts
09-Sep-18 08:20 34.359231 -119.260968 73 18944ft 414kts
09-Sep-18 08:21 34.390168 -119.127843 73 18934ft 415kts
09-Sep-18 08:22 34.421008 -118.994397 73 18927ft 415kts
09-Sep-18 08:23 34.451800 -118.860398 72 18927ft 417kts
09-Sep-18 08:24 34.482718 -118.725106 72 18940ft 419kts
09-Sep-18 08:25 34.513059 -118.591601 72 18971ft 420kts
09-Sep-18 08:26 34.543739 -118.455841 72 18988ft 421kts
09-Sep-18 08:27 34.573223 -118.324654 73 18997ft 422kts
09-Sep-18 08:28 34.603315 -118.190122 73 19003ft 422kts
09-Sep-18 08:29 34.616984 -118.050152 101 19011ft 426kts
09-Sep-18 08:30 34.567327 -117.920970 119 19007ft 426kts
09-Sep-18 08:31 34.509716 -117.795617 119 19005ft 425kts
09-Sep-18 08:32 34.454464 -117.675766 119 19015ft 409kts
09-Sep-18 08:33 34.399175 -117.556112 119 19028ft 409kts
09-Sep-18 08:34 34.343639 -117.436158 118 19009ft 410kts
09-Sep-18 08:35 34.288410 -117.317308 119 18983ft 412kts
09-Sep-18 08:36 34.233320 -117.199098 119 18394ft 391kts
09-Sep-18 08:37 34.182266 -117.089869 119 16868ft 363kts
09-Sep-18 08:38 34.133747 -116.986390 120 14995ft 349kts
09-Sep-18 08:39 34.087372 -116.887619 120 14034ft 333kts
09-Sep-18 08:40 34.045271 -116.797131 120 13271ft 301kts
09-Sep-18 08:41 34.004903 -116.710282 120 11962ft 295kts
09-Sep-18 08:42 33.965021 -116.625207 120 10651ft 291kts
09-Sep-18 08:43 33.925516 -116.542035 120 9424ft 286kts
09-Sep-18 08:44 33.887687 -116.463284 120 8242ft 270kts
09-Sep-18 08:45 33.852239 -116.390154 120 7056ft 232kts
09-Sep-18 08:46 33.820561 -116.325383 120 5089ft 222kts
09-Sep-18 08:47 33.790079 -116.263784 127 3951ft 201kts
09-Sep-18 08:48 33.760107 -116.282330 295 3972ft 173kts
09-Sep-18 08:49 33.754679 -116.337063 253 3322ft 170kts
09-Sep-18 08:50 33.748113 -116.390107 269 2567ft 156kts
09-Sep-18 08:51 33.753226 -116.440198 302 2081ft 149kts
09-Sep-18 08:52 33.785662 -116.468859 323 1340ft 145kts
09-Sep-18 08:53 33.817729 -116.497165 323 572ft 140kts
09-Sep-18 08:54 33.836262 -116.513527 322 485ft 21kts
09-Sep-18 08:55 33.834991 -116.514516 144 485ft 11kts
09-Sep-18 08:56 33.832287 -116.512088 143 485ft 13kts
09-Sep-18 08:57 33.829125 -116.509276 143 485ft 15kts
09-Sep-18 08:58 33.825630 -116.506082 143 485ft 16kts
09-Sep-18 08:59 33.823025 -116.504491 259 485ft 5kts
09-Sep-18 09:00 33.823103 -116.505685 277 485ft 0kts
09-Sep-18 09:01 33.823103 -116.505684 277 485ft 0kts
09-Sep-18 09:02 33.823103 -116.505684 277 485ft 0kts
09-Sep-18 09:03 33.823103 -116.505684 277 485ft 0kts
09-Sep-18 09:04 33.823103 -116.505684 277 485ft 0kts
09-Sep-18 09:05 33.823103 -116.505684 277 485ft 0kts

Navigation Log

Ident Type
Flight plan parsing failed, navigation log unavailable